Terminal Aerodrome Forecast
Issued by NWS Louisville, KY

Home | Current Version | Previous Version | Text Only | Print | Product List | Glossary On
Versions: 1 2 3 4 5 6 7 8 9 10 11 12 13 14 15 16 17
000
FTUS43 KLMK 222300
TAFSDF
TAF
KSDF 222329Z 2300/2406 VRB07KT 6SM -TSRA HZ BKN035CB
      TEMPO 2300/2301 33010G20KT 3SM TSRA BKN025CB
     FM230200 VRB03KT P6SM BKN250
      TEMPO 2309/2313 5SM BR
     FM231800 VRB04KT P6SM SCT040 PROB30 2318/2324 -TSRA BKN035CB=

USA.gov is the U.S. government's official web portal to all federal, state and local government web resources and services.